Time;durP1;ratioP1;P1;durP2;ratioP2;P2;SDS_P1;SDS_P2;PMS_P1;PMS_P2;Temp;Humidity;BMP_temperature;BMP_pressure;BME280_temperature;BME280_humidity;BME280_pressure;Samples;Min_cycle;Max_cycle;Signal;HPM_P1;HPM_P2
2021/07/06 00:02:20;;;;;;;13.13;9.52;;;17.50;99.90;;;;;;5007634;28;25054;-64
2021/07/06 00:04:47;;;;;;;12.50;9.95;;;17.60;99.90;;;;;;5009505;28;25065;-65
2021/07/06 00:07:15;;;;;;;12.82;9.68;;;17.60;99.90;;;;;;5006613;28;25118;-63
2021/07/06 00:09:41;;;;;;;11.63;9.15;;;17.60;99.90;;;;;;5008164;28;25065;-65
2021/07/06 00:12:06;;;;;;;13.68;9.77;;;17.60;99.90;;;;;;5004672;28;25070;-64
2021/07/06 00:14:32;;;;;;;14.40;9.65;;;17.60;99.90;;;;;;4997731;28;25067;-64
2021/07/06 00:16:58;;;;;;;12.70;9.60;;;17.70;99.90;;;;;;5004800;28;25092;-64
2021/07/06 00:19:23;;;;;;;15.02;10.65;;;17.70;99.90;;;;;;5007559;28;25061;-64
2021/07/06 00:21:49;;;;;;;15.05;10.02;;;17.80;99.90;;;;;;5008340;28;25088;-64
2021/07/06 00:24:14;;;;;;;10.70;9.88;;;17.80;99.90;;;;;;5001220;28;25080;-64
2021/07/06 00:26:40;;;;;;;13.98;9.98;;;17.80;99.90;;;;;;5010648;28;25148;-64
2021/07/06 00:29:05;;;;;;;11.75;10.57;;;17.80;99.90;;;;;;5007684;28;25066;-64
2021/07/06 00:31:31;;;;;;;13.88;10.48;;;17.80;99.90;;;;;;5009056;28;25072;-65
2021/07/06 00:33:56;;;;;;;11.23;10.10;;;17.80;99.90;;;;;;5008200;28;25099;-64
2021/07/06 00:36:22;;;;;;;13.15;10.10;;;17.90;99.90;;;;;;5008552;28;25079;-64
2021/07/06 00:38:48;;;;;;;12.38;9.98;;;17.80;99.90;;;;;;5006315;28;25073;-64
2021/07/06 00:41:14;;;;;;;10.27;9.27;;;17.90;99.90;;;;;;5008633;28;25146;-65
2021/07/06 00:43:39;;;;;;;10.05;9.00;;;17.90;99.90;;;;;;5000340;28;25134;-64
2021/07/06 00:46:06;;;;;;;13.20;9.82;;;17.90;99.90;;;;;;5003862;28;25077;-64
2021/07/06 00:48:32;;;;;;;10.18;8.95;;;17.90;99.90;;;;;;5005651;28;25108;-64
2021/07/06 00:50:58;;;;;;;15.88;9.60;;;17.90;99.90;;;;;;5002620;28;25087;-64
2021/07/06 00:53:24;;;;;;;10.77;9.68;;;17.90;99.90;;;;;;5005052;28;25057;-65
2021/07/06 00:55:55;;;;;;;10.32;8.68;;;17.90;99.90;;;;;;5000980;28;25081;-64
2021/07/06 00:58:21;;;;;;;9.98;7.95;;;17.90;99.90;;;;;;4997691;28;25076;-65
2021/07/06 01:00:46;;;;;;;13.63;8.95;;;17.90;99.90;;;;;;4997597;28;25065;-65
2021/07/06 01:03:12;;;;;;;10.95;8.93;;;17.80;99.90;;;;;;5005145;28;25143;-63
2021/07/06 01:05:39;;;;;;;12.70;8.95;;;17.80;99.90;;;;;;4997099;28;25076;-63
2021/07/06 01:08:08;;;;;;;10.30;7.55;;;17.80;99.90;;;;;;5007730;28;25069;-62
2021/07/06 01:10:35;;;;;;;8.23;6.68;;;17.70;99.90;;;;;;5008289;28;25067;-62
2021/07/06 01:13:01;;;;;;;10.95;8.02;;;17.60;99.90;;;;;;5004863;28;25176;-63
2021/07/06 01:15:28;;;;;;;9.90;7.70;;;17.60;99.90;;;;;;5000206;28;25138;-63
2021/07/06 01:18:03;;;;;;;8.55;7.10;;;17.60;99.90;;;;;;5003567;28;25067;-63
2021/07/06 01:20:30;;;;;;;7.70;6.97;;;17.50;99.90;;;;;;5006680;28;25092;-64
2021/07/06 01:22:56;;;;;;;8.65;7.70;;;17.40;99.90;;;;;;5002499;28;25106;-64
2021/07/06 01:25:21;;;;;;;7.90;7.15;;;17.50;99.90;;;;;;5004049;28;25110;-64
2021/07/06 01:27:47;;;;;;;8.32;7.63;;;17.50;99.90;;;;;;4998929;28;25109;-64
2021/07/06 01:30:15;;;;;;;7.75;6.93;;;17.50;99.90;;;;;;5004636;28;25056;-64
2021/07/06 01:32:46;;;;;;;7.45;6.82;;;17.50;99.90;;;;;;5000764;28;25108;-63
2021/07/06 01:35:14;;;;;;;8.15;7.35;;;17.50;99.90;;;;;;4997761;28;25061;-64
2021/07/06 01:37:52;;;;;;;9.68;7.93;;;17.50;99.90;;;;;;4990316;28;25067;-63
2021/07/06 01:40:20;;;;;;;9.52;7.07;;;17.60;99.90;;;;;;4998085;28;25108;-63
2021/07/06 01:42:46;;;;;;;7.90;7.30;;;17.60;99.90;;;;;;5001326;28;25067;-63
2021/07/06 01:45:17;;;;;;;8.88;8.35;;;17.60;99.90;;;;;;5001799;28;25062;-63
2021/07/06 01:47:49;;;;;;;8.60;7.95;;;17.60;99.90;;;;;;5006382;28;25128;-64
2021/07/06 01:50:18;;;;;;;9.25;8.40;;;17.60;99.90;;;;;;5006280;28;25072;-64
2021/07/06 01:52:46;;;;;;;9.50;8.73;;;17.70;99.90;;;;;;5006716;28;25077;-62
2021/07/06 01:55:13;;;;;;;6.35;5.85;;;17.60;99.90;;;;;;5005204;28;25051;-63
2021/07/06 01:57:40;;;;;;;7.78;7.28;;;17.60;99.90;;;;;;5004111;28;25076;-63
2021/07/06 02:00:09;;;;;;;7.20;6.80;;;17.70;99.90;;;;;;5007925;28;25189;-63
2021/07/06 02:02:34;;;;;;;7.25;6.63;;;17.70;99.90;;;;;;5005459;28;25097;-65
2021/07/06 02:05:06;;;;;;;9.55;5.72;;;17.60;99.90;;;;;;4999633;28;25171;-64
2021/07/06 02:07:32;;;;;;;6.28;5.97;;;17.60;99.90;;;;;;4994849;28;25069;-63
2021/07/06 02:09:58;;;;;;;6.65;6.25;;;17.60;99.90;;;;;;5007065;28;25077;-63
2021/07/06 02:12:23;;;;;;;7.70;7.05;;;17.60;99.90;;;;;;5006077;28;25066;-63
2021/07/06 02:14:49;;;;;;;7.78;7.22;;;17.60;99.90;;;;;;5006929;28;25130;-63
2021/07/06 02:17:14;;;;;;;7.53;6.93;;;17.60;99.90;;;;;;5005927;28;25058;-63
2021/07/06 02:19:40;;;;;;;7.90;6.90;;;17.60;99.90;;;;;;5006984;28;25062;-64
2021/07/06 02:22:06;;;;;;;7.18;6.68;;;17.60;99.90;;;;;;5003545;28;25099;-63
2021/07/06 02:24:31;;;;;;;6.97;6.30;;;17.60;99.90;;;;;;5006357;28;25060;-64
2021/07/06 02:26:58;;;;;;;5.70;5.30;;;17.60;99.90;;;;;;5005170;28;25074;-63
2021/07/06 02:29:24;;;;;;;5.60;4.93;;;17.60;99.90;;;;;;5005146;28;25068;-63
2021/07/06 02:31:50;;;;;;;6.40;5.95;;;17.50;99.90;;;;;;5005541;28;25071;-64
2021/07/06 02:34:15;;;;;;;5.75;5.35;;;17.50;99.90;;;;;;5005642;28;25069;-64
2021/07/06 02:36:41;;;;;;;6.70;6.20;;;17.50;99.90;;;;;;5007368;28;25139;-63
2021/07/06 02:39:06;;;;;;;6.72;6.25;;;17.50;99.90;;;;;;5006299;28;25068;-64
2021/07/06 02:41:32;;;;;;;5.78;5.47;;;17.50;99.90;;;;;;5006132;28;25047;-64
2021/07/06 02:43:57;;;;;;;6.88;6.07;;;17.50;99.90;;;;;;5007155;28;25125;-63
2021/07/06 02:46:23;;;;;;;8.32;5.97;;;17.50;99.90;;;;;;5005150;28;25061;-63
2021/07/06 02:48:48;;;;;;;6.53;5.72;;;17.50;99.90;;;;;;5009292;28;25125;-63
2021/07/06 02:51:17;;;;;;;6.07;5.50;;;17.50;99.90;;;;;;5011026;28;25071;-64
2021/07/06 02:53:42;;;;;;;9.45;8.80;;;17.50;99.90;;;;;;5008253;28;25132;-63
2021/07/06 02:56:08;;;;;;;9.32;8.82;;;17.50;99.90;;;;;;5008841;28;25083;-63
2021/07/06 02:58:33;;;;;;;10.10;9.60;;;17.40;99.90;;;;;;5007316;28;25067;-63
2021/07/06 03:00:59;;;;;;;9.50;9.00;;;17.50;99.90;;;;;;5011075;28;25070;-64
2021/07/06 03:03:25;;;;;;;12.95;8.60;;;17.50;99.90;;;;;;5009890;28;25057;-64
2021/07/06 03:05:50;;;;;;;9.32;8.63;;;17.50;99.90;;;;;;5010517;28;25055;-64
2021/07/06 03:08:16;;;;;;;9.70;8.88;;;17.50;99.90;;;;;;5009164;28;25061;-64
2021/07/06 03:10:41;;;;;;;9.13;8.43;;;17.40;99.90;;;;;;5008302;28;25098;-64
2021/07/06 03:13:08;;;;;;;7.63;7.13;;;17.40;99.90;;;;;;4998807;28;25099;-65
2021/07/06 03:15:34;;;;;;;7.40;7.00;;;17.40;99.90;;;;;;5005747;28;25062;-63
2021/07/06 03:18:05;;;;;;;7.55;7.15;;;17.40;99.90;;;;;;4999451;28;25073;-65
2021/07/06 03:20:32;;;;;;;5.85;5.55;;;17.40;99.90;;;;;;5009480;28;25053;-64
2021/07/06 03:22:58;;;;;;;4.78;4.35;;;17.40;99.90;;;;;;5002901;28;25068;-64
2021/07/06 03:25:25;;;;;;;8.48;5.38;;;17.40;99.90;;;;;;5008574;28;25100;-65
2021/07/06 03:27:52;;;;;;;4.68;4.30;;;17.40;99.90;;;;;;5006318;28;25127;-64
2021/07/06 03:30:20;;;;;;;4.22;3.95;;;17.40;99.90;;;;;;5009192;28;25054;-65
2021/07/06 03:32:47;;;;;;;5.55;4.22;;;17.40;99.90;;;;;;5006599;28;25073;-64
2021/07/06 03:35:13;;;;;;;9.13;4.47;;;17.40;99.90;;;;;;5009670;28;25157;-64
2021/07/06 03:37:39;;;;;;;4.30;3.75;;;17.40;99.90;;;;;;5008099;28;25062;-66
2021/07/06 03:40:07;;;;;;;5.70;3.80;;;17.40;99.90;;;;;;5009366;28;25152;-64
2021/07/06 03:42:33;;;;;;;3.90;3.60;;;17.50;99.90;;;;;;5008998;28;25105;-65
2021/07/06 03:44:58;;;;;;;5.32;4.93;;;17.50;99.90;;;;;;5008890;28;25097;-64
2021/07/06 03:47:24;;;;;;;4.72;4.20;;;17.50;99.90;;;;;;5004056;28;25095;-64
2021/07/06 03:49:50;;;;;;;3.67;3.42;;;17.60;99.90;;;;;;5008256;28;25058;-64
2021/07/06 03:52:15;;;;;;;15.57;3.63;;;17.60;99.90;;;;;;5009858;28;25123;-64
2021/07/06 03:54:41;;;;;;;4.80;4.22;;;17.60;99.90;;;;;;5007387;28;25060;-64
2021/07/06 03:57:07;;;;;;;5.80;3.15;;;17.60;99.90;;;;;;5005779;28;25064;-64
2021/07/06 03:59:32;;;;;;;4.38;3.92;;;17.70;99.90;;;;;;5006090;28;25092;-64
2021/07/06 04:01:58;;;;;;;4.70;3.50;;;17.80;99.90;;;;;;5001801;28;25057;-63
2021/07/06 04:04:24;;;;;;;3.45;3.13;;;17.70;99.90;;;;;;5008842;28;25070;-64
2021/07/06 04:06:50;;;;;;;3.17;2.83;;;17.70;99.90;;;;;;5008876;28;25057;-66
2021/07/06 04:09:15;;;;;;;3.70;2.38;;;17.70;99.90;;;;;;5008705;28;25131;-65
2021/07/06 04:11:41;;;;;;;4.25;2.20;;;17.70;99.90;;;;;;5008669;28;25098;-65
2021/07/06 04:14:07;;;;;;;3.67;2.13;;;17.70;99.90;;;;;;5009422;28;25068;-65
2021/07/06 04:16:33;;;;;;;3.13;2.28;;;17.80;99.90;;;;;;5009364;28;25067;-64
2021/07/06 04:18:59;;;;;;;7.60;2.40;;;17.80;99.90;;;;;;5009249;28;25064;-63
2021/07/06 04:21:24;;;;;;;2.60;1.92;;;17.70;99.90;;;;;;5004175;28;25069;-63
2021/07/06 04:23:50;;;;;;;2.35;2.15;;;17.70;99.90;;;;;;5008667;28;25132;-64
2021/07/06 04:26:16;;;;;;;2.60;2.22;;;17.70;99.90;;;;;;5009125;28;25084;-65
2021/07/06 04:28:42;;;;;;;2.95;2.42;;;17.70;99.90;;;;;;5006791;28;25151;-64
2021/07/06 04:31:08;;;;;;;2.67;2.13;;;17.70;99.90;;;;;;5008614;28;25052;-63
2021/07/06 04:33:34;;;;;;;5.45;2.55;;;17.70;99.90;;;;;;5008425;28;25143;-63
2021/07/06 04:35:59;;;;;;;2.13;2.03;;;17.70;99.90;;;;;;5008229;28;25052;-66
2021/07/06 04:38:25;;;;;;;9.45;2.83;;;17.70;99.90;;;;;;5012307;28;25061;-64
2021/07/06 04:40:51;;;;;;;14.55;13.40;;;17.70;99.90;;;;;;5009124;28;25086;-65
2021/07/06 04:43:17;;;;;;;12.98;11.18;;;17.70;99.90;;;;;;5007033;28;25072;-64
2021/07/06 04:45:42;;;;;;;9.98;9.38;;;17.70;99.90;;;;;;5016784;28;25134;-64
2021/07/06 04:48:10;;;;;;;9.15;8.57;;;17.70;99.90;;;;;;5006901;28;25104;-65
2021/07/06 04:50:37;;;;;;;7.28;6.00;;;17.70;99.90;;;;;;5008386;28;25130;-63
2021/07/06 04:53:03;;;;;;;4.57;3.55;;;17.70;99.90;;;;;;5007977;28;25088;-65
2021/07/06 04:55:31;;;;;;;4.78;4.38;;;17.70;99.90;;;;;;5008321;28;25055;-67
2021/07/06 04:57:56;;;;;;;4.57;4.18;;;17.70;99.90;;;;;;5010903;28;25071;-64
2021/07/06 05:00:22;;;;;;;4.78;4.38;;;17.70;99.90;;;;;;5004662;28;25143;-64
2021/07/06 05:02:48;;;;;;;5.40;5.00;;;17.80;99.90;;;;;;5000884;28;25098;-63
2021/07/06 05:05:14;;;;;;;5.07;4.60;;;17.80;99.90;;;;;;5005725;28;25094;-64
2021/07/06 05:07:40;;;;;;;8.90;4.57;;;17.90;99.90;;;;;;5007669;28;25086;-66
2021/07/06 05:10:09;;;;;;;4.22;3.90;;;17.90;99.90;;;;;;5007425;28;25071;-64
2021/07/06 05:12:34;;;;;;;4.10;3.80;;;18.00;99.90;;;;;;5008584;28;25047;-64
2021/07/06 05:15:01;;;;;;;8.05;3.58;;;18.00;99.90;;;;;;5008185;28;25142;-63
2021/07/06 05:17:27;;;;;;;4.75;3.67;;;18.00;99.90;;;;;;5007444;28;25109;-66
2021/07/06 05:19:53;;;;;;;4.28;3.20;;;18.00;99.90;;;;;;5006077;28;25135;-65
2021/07/06 05:22:19;;;;;;;5.00;4.60;;;18.00;99.90;;;;;;5005888;28;25062;-64
2021/07/06 05:24:45;;;;;;;4.68;3.92;;;18.10;99.90;;;;;;5004440;28;25124;-64
2021/07/06 05:27:10;;;;;;;11.88;3.30;;;18.10;99.90;;;;;;5001491;28;25146;-65
2021/07/06 05:29:36;;;;;;;5.63;2.88;;;18.10;99.90;;;;;;4997753;28;25067;-65
2021/07/06 05:32:02;;;;;;;2.70;1.50;;;18.20;99.90;;;;;;5002524;28;25074;-67
2021/07/06 05:34:27;;;;;;;2.75;1.80;;;18.40;99.90;;;;;;4997677;28;25074;-66
2021/07/06 05:36:53;;;;;;;7.53;2.00;;;18.40;99.90;;;;;;5002338;28;25154;-64
2021/07/06 05:39:20;;;;;;;3.63;1.70;;;18.40;99.90;;;;;;4999670;28;25071;-63
2021/07/06 05:41:46;;;;;;;7.60;1.77;;;18.50;99.90;;;;;;5000291;28;25089;-65
2021/07/06 05:44:12;;;;;;;1.85;1.70;;;18.60;99.90;;;;;;5003210;28;25081;-64
2021/07/06 05:46:38;;;;;;;5.97;1.77;;;18.60;99.90;;;;;;5009562;28;25078;-63
2021/07/06 05:49:03;;;;;;;3.28;2.20;;;18.60;99.90;;;;;;5008444;28;25089;-66
2021/07/06 05:51:29;;;;;;;5.50;2.20;;;18.50;99.90;;;;;;5007830;28;25075;-63
2021/07/06 05:53:55;;;;;;;4.20;2.22;;;18.60;99.90;;;;;;5008387;28;25076;-64
2021/07/06 05:56:21;;;;;;;2.28;1.50;;;18.60;99.90;;;;;;5007211;28;25114;-64
2021/07/06 05:58:47;;;;;;;5.45;2.40;;;18.60;99.90;;;;;;5000199;28;25073;-63
2021/07/06 06:01:13;;;;;;;5.80;1.70;;;18.60;99.90;;;;;;4998150;28;25082;-65
2021/07/06 06:03:39;;;;;;;8.07;1.83;;;18.60;99.90;;;;;;5002342;28;25066;-66
2021/07/06 06:06:04;;;;;;;6.68;1.85;;;18.60;99.90;;;;;;5006378;28;25152;-66
2021/07/06 06:08:30;;;;;;;3.28;1.67;;;18.60;99.90;;;;;;4996632;28;25073;-64
2021/07/06 06:10:56;;;;;;;8.65;1.80;;;18.70;99.90;;;;;;4994688;28;25068;-64
2021/07/06 06:13:22;;;;;;;6.80;1.45;;;18.70;99.90;;;;;;4993977;28;25064;-66
2021/07/06 06:15:47;;;;;;;2.13;1.38;;;18.70;99.90;;;;;;4996976;28;25071;-65
2021/07/06 06:18:13;;;;;;;5.85;1.63;;;18.70;99.90;;;;;;5010444;28;25123;-64
2021/07/06 06:20:39;;;;;;;6.57;1.63;;;18.80;99.90;;;;;;5009811;28;25084;-65
2021/07/06 06:23:05;;;;;;;4.53;1.50;;;18.70;99.90;;;;;;5008415;28;25092;-64
2021/07/06 06:25:31;;;;;;;3.13;1.55;;;18.70;99.90;;;;;;5015529;28;25073;-64
2021/07/06 06:27:57;;;;;;;2.95;1.45;;;18.80;99.90;;;;;;5011145;28;25056;-64
2021/07/06 06:30:23;;;;;;;4.47;1.42;;;18.80;99.90;;;;;;5019106;28;25087;-65
2021/07/06 06:32:49;;;;;;;5.05;1.40;;;18.90;99.90;;;;;;5011388;28;25097;-64
2021/07/06 06:35:14;;;;;;;3.38;1.38;;;18.90;99.90;;;;;;5011874;28;25143;-65
2021/07/06 06:37:41;;;;;;;1.45;1.27;;;18.90;99.90;;;;;;5010699;28;25074;-64
2021/07/06 06:40:08;;;;;;;1.95;1.45;;;18.90;99.90;;;;;;5010286;28;25092;-63
2021/07/06 06:42:35;;;;;;;1.70;1.40;;;18.90;99.90;;;;;;5012393;28;25136;-65
2021/07/06 06:45:01;;;;;;;1.73;1.63;;;18.90;99.90;;;;;;5011293;28;25083;-65
2021/07/06 06:47:27;;;;;;;3.97;1.35;;;18.90;99.90;;;;;;4995351;28;25053;-64
2021/07/06 06:49:52;;;;;;;3.00;1.38;;;19.00;99.90;;;;;;4997828;28;25084;-66
2021/07/06 06:52:18;;;;;;;1.40;1.30;;;19.10;99.90;;;;;;4997911;28;25133;-65
2021/07/06 06:54:44;;;;;;;4.15;2.72;;;19.10;99.90;;;;;;5002929;28;25068;-65
2021/07/06 06:57:09;;;;;;;5.22;1.63;;;19.00;99.90;;;;;;4996263;28;25148;-65
2021/07/06 06:59:35;;;;;;;1.70;1.45;;;18.90;99.90;;;;;;5004616;28;25057;-66
2021/07/06 07:04:52;;;;;;;2.25;1.10;;;18.90;99.90;;;;;;5003994;28;25066;-64
2021/07/06 07:07:19;;;;;;;4.55;1.63;;;19.00;99.90;;;;;;5004808;28;25077;-64
2021/07/06 07:09:45;;;;;;;3.25;1.58;;;19.00;99.90;;;;;;5003948;28;25087;-64
2021/07/06 07:12:11;;;;;;;1.77;1.38;;;19.10;99.90;;;;;;5003194;28;25054;-65
2021/07/06 07:14:39;;;;;;;3.35;1.92;;;19.10;99.90;;;;;;5003421;28;25064;-63
2021/07/06 07:17:05;;;;;;;8.85;1.73;;;19.20;99.90;;;;;;5012824;28;25069;-63
2021/07/06 07:19:31;;;;;;;4.38;1.73;;;19.10;99.90;;;;;;5018155;28;25155;-65
2021/07/06 07:21:57;;;;;;;5.72;1.75;;;19.20;99.90;;;;;;5003938;28;25066;-65
2021/07/06 07:24:22;;;;;;;2.13;1.40;;;19.20;99.90;;;;;;5002061;28;25106;-64
2021/07/06 07:26:49;;;;;;;2.35;1.70;;;19.20;99.90;;;;;;5019186;28;25069;-64
2021/07/06 07:29:14;;;;;;;1.15;1.05;;;19.20;99.90;;;;;;5006227;28;25097;-65
2021/07/06 07:31:40;;;;;;;4.38;1.60;;;19.30;99.90;;;;;;5003191;28;25093;-64
2021/07/06 07:34:06;;;;;;;4.30;1.70;;;19.50;99.90;;;;;;5013329;28;25129;-65
2021/07/06 07:36:32;;;;;;;4.38;1.95;;;19.70;99.90;;;;;;5027812;28;25144;-64
2021/07/06 07:38:58;;;;;;;3.55;1.58;;;19.80;99.90;;;;;;5016235;28;25118;-65
2021/07/06 07:41:23;;;;;;;7.72;1.55;;;19.90;99.90;;;;;;5011079;28;25051;-64
2021/07/06 07:43:53;;;;;;;3.05;1.02;;;20.20;99.90;;;;;;5002091;28;25043;-65
2021/07/06 07:46:19;;;;;;;2.78;0.95;;;20.30;99.90;;;;;;5001918;28;25085;-63
2021/07/06 07:48:46;;;;;;;5.35;1.13;;;20.20;99.90;;;;;;5009881;28;25150;-65
2021/07/06 07:51:11;;;;;;;9.25;0.90;;;20.00;99.90;;;;;;5017735;28;25079;-65
2021/07/06 07:53:37;;;;;;;7.45;1.10;;;20.00;99.90;;;;;;5002315;28;25134;-65
2021/07/06 07:56:03;;;;;;;6.03;0.88;;;20.00;99.90;;;;;;5001079;28;25096;-65
2021/07/06 07:58:28;;;;;;;5.82;1.27;;;19.90;99.90;;;;;;5000516;28;25058;-65
2021/07/06 08:00:54;;;;;;;7.53;1.35;;;19.70;99.90;;;;;;5009550;28;25090;-66
2021/07/06 08:03:20;;;;;;;3.50;0.90;;;19.50;99.90;;;;;;5010191;28;25161;-65
2021/07/06 08:05:46;;;;;;;7.63;1.15;;;19.60;99.90;;;;;;5010471;28;25120;-65
2021/07/06 08:08:11;;;;;;;5.13;0.85;;;19.70;99.90;;;;;;5011537;28;25095;-64
2021/07/06 08:10:37;;;;;;;12.25;0.98;;;19.70;99.90;;;;;;5007873;28;25178;-64
2021/07/06 08:13:03;;;;;;;2.80;0.82;;;19.90;99.90;;;;;;5011034;28;25082;-64
2021/07/06 08:15:29;;;;;;;11.55;1.55;;;19.80;99.90;;;;;;5002255;28;25051;-66
2021/07/06 08:17:54;;;;;;;5.35;1.15;;;19.90;99.90;;;;;;4999675;28;25089;-65
2021/07/06 08:20:20;;;;;;;4.65;1.10;;;19.90;99.90;;;;;;4999317;28;25062;-65
2021/07/06 08:22:46;;;;;;;7.30;0.77;;;20.00;99.90;;;;;;5001397;28;25052;-65
2021/07/06 08:25:12;;;;;;;3.05;1.10;;;20.10;99.90;;;;;;5004636;28;25077;-64
2021/07/06 08:27:37;;;;;;;3.30;1.15;;;20.10;99.90;;;;;;5001894;28;25067;-65
2021/07/06 08:30:05;;;;;;;5.68;1.02;;;20.20;99.90;;;;;;4996239;28;25073;-64
2021/07/06 08:32:30;;;;;;;5.93;1.20;;;20.20;99.90;;;;;;5007897;28;25105;-66
2021/07/06 08:34:56;;;;;;;16.13;1.52;;;20.10;99.90;;;;;;5001495;28;25103;-70
2021/07/06 08:37:22;;;;;;;6.68;1.38;;;20.10;99.90;;;;;;5001696;28;25052;-66
2021/07/06 08:39:47;;;;;;;7.97;1.20;;;19.80;99.90;;;;;;4999760;28;25084;-65
2021/07/06 08:42:13;;;;;;;9.85;1.15;;;19.70;99.90;;;;;;4995381;28;25061;-63
2021/07/06 08:44:39;;;;;;;6.68;1.17;;;19.70;99.90;;;;;;4999980;28;25138;-65
2021/07/06 08:47:07;;;;;;;6.53;1.15;;;19.70;99.90;;;;;;5003176;28;25097;-64
2021/07/06 08:49:35;;;;;;;5.00;0.82;;;19.80;99.90;;;;;;5005920;28;25069;-65
2021/07/06 08:52:03;;;;;;;4.32;1.08;;;19.90;99.90;;;;;;5002052;28;25132;-66
2021/07/06 08:54:30;;;;;;;7.25;0.75;;;19.80;99.90;;;;;;4999580;28;25155;-65
2021/07/06 08:56:56;;;;;;;6.03;0.75;;;19.60;99.90;;;;;;4999611;28;25158;-66
2021/07/06 08:59:21;;;;;;;3.78;1.25;;;19.70;99.90;;;;;;4993988;28;25099;-66
2021/07/06 09:01:47;;;;;;;4.72;0.88;;;19.90;99.90;;;;;;4999280;28;25103;-66
2021/07/06 09:04:12;;;;;;;5.25;0.93;;;20.20;99.90;;;;;;5002876;28;25065;-66
2021/07/06 09:06:56;;;;;;;8.63;1.48;;;20.30;99.90;;;;;;4996910;28;25072;-67
2021/07/06 09:09:28;;;;;;;7.82;1.33;;;20.40;99.90;;;;;;5003855;28;25074;-64
2021/07/06 09:11:55;;;;;;;1.27;0.45;;;20.50;99.90;;;;;;4999103;28;25094;-63
2021/07/06 09:14:27;;;;;;;5.38;1.08;;;20.30;99.90;;;;;;4995997;28;25113;-65
2021/07/06 09:17:06;;;;;;;4.28;1.10;;;20.10;99.90;;;;;;4994370;28;25115;-64
2021/07/06 09:19:32;;;;;;;7.90;1.00;;;19.90;99.90;;;;;;4994649;28;25071;-64
2021/07/06 09:22:10;;;;;;;4.15;1.10;;;19.70;99.90;;;;;;5003071;28;25119;-63
2021/07/06 09:24:36;;;;;;;4.97;1.10;;;19.70;99.90;;;;;;4994630;28;25058;-64
2021/07/06 09:27:25;;;;;;;9.20;1.42;;;19.60;99.90;;;;;;5003680;28;25065;-64
2021/07/06 09:30:13;;;;;;;2.70;0.80;;;19.60;99.90;;;;;;5002720;28;25127;-65
2021/07/06 09:32:45;;;;;;;15.55;1.50;;;19.50;99.90;;;;;;4999521;28;25156;-66
2021/07/06 09:35:19;;;;;;;8.65;1.27;;;19.40;99.90;;;;;;5001507;28;25061;-65
2021/07/06 09:37:54;;;;;;;16.80;1.83;;;19.20;99.90;;;;;;4998749;28;25051;-66
2021/07/06 09:40:31;;;;;;;6.32;1.08;;;19.40;99.90;;;;;;5000578;28;25059;-65
2021/07/06 09:43:12;;;;;;;7.07;1.13;;;19.40;99.90;;;;;;5007746;28;25067;-65
2021/07/06 09:45:38;;;;;;;3.00;1.05;;;19.40;99.90;;;;;;5009686;28;25151;-64
2021/07/06 09:48:08;;;;;;;5.25;0.85;;;19.40;99.90;;;;;;5014165;28;25107;-66
2021/07/06 09:50:34;;;;;;;4.28;1.00;;;19.50;99.90;;;;;;5009143;28;25074;-66
2021/07/06 09:53:00;;;;;;;5.03;1.20;;;19.40;99.90;;;;;;5009501;28;25071;-66
2021/07/06 09:55:32;;;;;;;4.18;0.98;;;19.40;99.90;;;;;;5011207;28;25060;-66
2021/07/06 09:58:04;;;;;;;12.75;1.10;;;19.30;99.90;;;;;;5013531;28;25070;-64
2021/07/06 10:00:32;;;;;;;8.88;0.88;;;19.20;99.90;;;;;;5013361;28;25062;-65
2021/07/06 10:03:01;;;;;;;8.35;1.15;;;19.10;99.90;;;;;;5007851;28;25183;-65
2021/07/06 10:05:28;;;;;;;2.67;1.05;;;19.10;99.90;;;;;;5000351;28;25098;-66
2021/07/06 10:07:55;;;;;;;4.70;1.00;;;19.20;99.90;;;;;;5001710;28;25112;-66
2021/07/06 10:10:22;;;;;;;9.02;1.40;;;19.30;99.90;;;;;;5015295;28;25143;-64
2021/07/06 10:12:49;;;;;;;6.28;0.98;;;19.40;99.90;;;;;;5019876;28;25055;-64
2021/07/06 10:15:17;;;;;;;5.70;1.50;;;19.60;99.90;;;;;;5010649;28;25145;-64
2021/07/06 10:17:44;;;;;;;8.88;1.10;;;19.90;99.90;;;;;;5011019;28;25081;-66
2021/07/06 10:20:12;;;;;;;6.57;1.13;;;20.10;99.90;;;;;;5005961;28;25147;-67
2021/07/06 10:22:39;;;;;;;12.43;1.35;;;20.00;99.90;;;;;;5010234;28;25165;-67
2021/07/06 10:25:07;;;;;;;5.65;0.73;;;19.90;99.90;;;;;;4998328;28;25089;-67
2021/07/06 10:27:37;;;;;;;4.70;1.40;;;19.60;99.90;;;;;;4998484;28;25047;-68
2021/07/06 10:30:16;;;;;;;5.07;0.73;;;19.60;99.90;;;;;;4998492;28;25065;-67
2021/07/06 10:32:49;;;;;;;3.97;1.08;;;19.70;99.90;;;;;;5001864;28;25083;-66
2021/07/06 10:35:15;;;;;;;5.80;1.00;;;19.70;99.90;;;;;;4998962;28;25062;-65
2021/07/06 10:37:42;;;;;;;2.58;0.82;;;19.60;99.90;;;;;;5009205;28;25136;-64
2021/07/06 10:40:19;;;;;;;11.85;1.85;;;19.60;99.90;;;;;;5006077;28;25079;-66
2021/07/06 10:42:49;;;;;;;9.20;1.15;;;19.60;99.90;;;;;;5007714;28;25162;-65
2021/07/06 10:45:33;;;;;;;6.95;0.98;;;19.50;99.90;;;;;;5003367;28;25072;-66
2021/07/06 10:47:58;;;;;;;8.75;0.93;;;19.40;99.90;;;;;;5008617;28;25133;-68
2021/07/06 10:50:31;;;;;;;8.50;1.40;;;19.20;99.90;;;;;;5008843;28;25070;-69
2021/07/06 10:53:12;;;;;;;3.88;0.90;;;19.20;99.90;;;;;;5002499;28;25100;-66
2021/07/06 10:55:38;;;;;;;2.30;0.85;;;19.30;99.90;;;;;;5007783;28;25072;-66
2021/07/06 10:58:04;;;;;;;3.05;0.93;;;19.30;99.90;;;;;;5008340;28;25082;-64
2021/07/06 11:00:43;;;;;;;9.82;1.30;;;19.30;99.90;;;;;;5008266;28;25073;-66
2021/07/06 11:03:39;;;;;;;3.08;0.98;;;19.40;99.90;;;;;;5007867;28;25068;-68
2021/07/06 11:06:25;;;;;;;7.38;1.17;;;19.40;99.90;;;;;;5007935;28;25061;-67
2021/07/06 11:08:50;;;;;;;6.47;1.10;;;19.40;99.90;;;;;;5008852;28;25081;-65
2021/07/06 11:11:35;;;;;;;2.50;0.90;;;19.40;99.90;;;;;;5013088;28;25082;-66
2021/07/06 11:14:21;;;;;;;7.07;0.90;;;19.30;99.90;;;;;;4999907;28;25064;-66
2021/07/06 11:17:02;;;;;;;6.20;0.93;;;19.30;99.90;;;;;;5011861;28;25106;-68
2021/07/06 11:19:38;;;;;;;6.15;1.02;;;19.40;99.90;;;;;;5014259;28;25066;-64
2021/07/06 11:22:15;;;;;;;8.30;1.08;;;19.40;99.90;;;;;;5011166;28;25095;-67
2021/07/06 11:24:43;;;;;;;3.33;0.90;;;19.70;99.90;;;;;;5014010;28;25132;-65
2021/07/06 11:27:11;;;;;;;7.80;0.98;;;19.70;99.90;;;;;;5012366;28;25084;-66
2021/07/06 11:29:40;;;;;;;9.07;1.50;;;19.90;99.90;;;;;;5006452;28;25098;-67
2021/07/06 11:32:11;;;;;;;5.32;0.95;;;19.90;99.90;;;;;;5010465;28;25057;-67
2021/07/06 11:34:37;;;;;;;7.03;1.10;;;19.90;99.90;;;;;;5000624;28;25172;-67
2021/07/06 11:37:05;;;;;;;9.07;1.13;;;19.90;99.90;;;;;;5002982;28;25154;-65
2021/07/06 11:39:33;;;;;;;7.93;1.15;;;19.80;99.90;;;;;;5009568;28;25147;-67
2021/07/06 11:41:59;;;;;;;4.28;0.85;;;19.70;99.90;;;;;;5004484;28;25062;-66
2021/07/06 11:44:25;;;;;;;5.75;1.52;;;19.40;99.90;;;;;;5005906;28;25062;-66
2021/07/06 11:46:55;;;;;;;4.15;1.00;;;19.40;99.90;;;;;;4999769;28;25081;-66
2021/07/06 11:49:21;;;;;;;8.70;1.50;;;19.40;99.90;;;;;;5011818;28;25088;-66
2021/07/06 11:51:47;;;;;;;8.52;1.25;;;19.30;99.90;;;;;;5012155;28;25059;-66
2021/07/06 11:54:15;;;;;;;4.07;1.02;;;19.30;99.90;;;;;;5012251;28;25043;-65
2021/07/06 11:56:41;;;;;;;6.18;1.42;;;19.30;99.90;;;;;;5017472;28;25087;-65
2021/07/06 11:59:11;;;;;;;5.10;1.27;;;19.30;99.90;;;;;;5018980;28;25055;-67
2021/07/06 12:01:37;;;;;;;7.53;1.60;;;19.40;99.90;;;;;;5015683;28;25091;-66
2021/07/06 12:04:03;;;;;;;4.95;1.33;;;19.40;99.90;;;;;;5012910;28;25045;-65
2021/07/06 12:06:31;;;;;;;7.97;1.63;;;19.30;99.90;;;;;;5024612;28;25061;-64
2021/07/06 12:09:02;;;;;;;4.90;1.08;;;19.20;99.90;;;;;;5011975;28;25080;-65
2021/07/06 12:11:29;;;;;;;3.72;1.15;;;19.10;99.90;;;;;;5010271;28;25053;-67
2021/07/06 12:14:02;;;;;;;6.05;1.58;;;19.10;99.90;;;;;;5004144;28;25146;-65
2021/07/06 12:16:39;;;;;;;5.40;1.60;;;19.40;99.90;;;;;;5005204;28;25082;-66
2021/07/06 12:19:10;;;;;;;6.85;1.45;;;19.60;99.90;;;;;;5006200;28;25072;-67
2021/07/06 12:21:44;;;;;;;3.50;1.50;;;19.70;99.90;;;;;;4999066;28;25121;-66
2021/07/06 12:24:18;;;;;;;10.55;2.13;;;19.70;99.90;;;;;;5004480;28;25056;-66
2021/07/06 12:26:47;;;;;;;7.90;1.05;;;19.70;99.90;;;;;;5015349;28;25071;-66
2021/07/06 12:29:13;;;;;;;8.05;1.50;;;19.60;99.90;;;;;;5000121;28;25050;-67
2021/07/06 12:31:40;;;;;;;9.50;1.60;;;19.60;99.90;;;;;;5008672;28;25057;-66
2021/07/06 12:34:16;;;;;;;6.22;1.05;;;19.50;99.90;;;;;;5002576;28;25066;-67
2021/07/06 12:36:44;;;;;;;7.53;1.30;;;19.70;99.90;;;;;;5002752;28;25147;-65
2021/07/06 12:39:26;;;;;;;6.22;1.05;;;19.80;99.90;;;;;;5002512;28;25052;-68
2021/07/06 12:41:59;;;;;;;6.72;1.35;;;19.70;99.90;;;;;;5004980;28;25072;-68
2021/07/06 12:44:32;;;;;;;7.25;1.10;;;19.80;99.90;;;;;;5005160;28;25049;-65
2021/07/06 12:47:18;;;;;;;6.90;1.10;;;19.60;99.90;;;;;;4994386;28;25132;-64
2021/07/06 12:49:55;;;;;;;7.80;1.35;;;19.50;99.90;;;;;;5004566;28;25058;-67
2021/07/06 12:52:26;;;;;;;9.13;1.30;;;19.40;99.90;;;;;;5002619;28;25105;-66